Startpagina
METAR-TAF:

METAR-TAF

Vliegvelden :

Luchthaven Athene

Athene, Griekenland

breedte: 37-56N, lengte: 023-56E, hoogte: 94 m

Actueel weer

Dit bericht is 12 minuten geleden gemaakt, om 08:20 UTC
Wind 13 kt uit het noordnoordwesten met uitschieters tot 23 kt
Temperatuur 32°C
Vochtigheid 32%
Druk 1006 hPa
Zicht 10 km of meer
Weinig wolken op 3000 ft

METAR: LGAV 180820Z 33013G23KT 9999 FEW030 32/13 Q1006 NOSIG

Tijdstip: 11:32 (08:32 UTC)

Verwachting

Dit bericht is 3 uur en het 32 minuten geleden gemaakt, om 05:00 UTC
Verwachting geldig van 18 om 06 UTC tot 19 om 06 UTC
Wind 10 kt uit het noordnoordwesten
Zicht 10 km of meer
Weinig wolken op 3000 ft
Wijzigt naar
van 18 om 06 UTC tot 18 om 08 UTC
Wind 15 kt uit het noordoosten
Wijzigt naar
van 18 om 16 UTC tot 18 om 18 UTC
Wind 5 kt uit variabele richting

TAF: LGAV 180500Z 1806/1906 34010KT 9999 FEW030 BECMG 1806/1808 04015KT BECMG 1816/1818 VRB05KT

Waarnemingen en weersverwachtingen van meer dan 4000 vliegvelden (METAR en TAF).

De beschikbare stations zijn de gele en rode punten op de kaart.

Ga met uw muis naar het station om de naam te zien.

Klik dan om waarnemingen en weersverwachtingen te zien.

kaart wijzigen: klik op de groene knoppen met een zwart kruis om in te zoomen, op de groene knop met een streepje om uit te zoomen of op de groene pijlen voor aangrenzende kaarten.


METAR-TAF: